createdAt,value
2023-01-04T00:01:08.332Z,98339.31
2023-01-04T00:03:39.068Z,98342.66
2023-01-04T00:06:09.804Z,98333.91
2023-01-04T00:08:38.946Z,98333.94
2023-01-04T00:11:09.434Z,98324.97
2023-01-04T00:13:38.938Z,98319.66
2023-01-04T00:16:10.607Z,98319.00
2023-01-04T00:18:44.098Z,98322.03
2023-01-04T00:21:15.005Z,98317.72
2023-01-04T00:23:46.298Z,98318.94
2023-01-04T00:26:16.968Z,98316.66
2023-01-04T00:28:53.742Z,98322.16
2023-01-04T00:31:24.525Z,98317.88
2023-01-04T00:33:59.264Z,98310.94
2023-01-04T00:36:28.701Z,98314.03
2023-01-04T00:39:15.408Z,98307.69
2023-01-04T00:42:01.972Z,98310.13
2023-01-04T00:44:31.449Z,98309.72
2023-01-04T00:47:01.192Z,98305.69
2023-01-04T00:49:32.019Z,98313.22
2023-01-04T00:52:01.429Z,98309.16
2023-01-04T00:54:31.154Z,98305.28
2023-01-04T00:57:01.411Z,98303.47
2023-01-04T00:59:30.476Z,98296.09
2023-01-04T01:01:59.385Z,98287.81
2023-01-04T01:04:28.327Z,98273.66
2023-01-04T01:06:58.880Z,98273.81
2023-01-04T01:09:27.775Z,98268.25
2023-01-04T01:11:56.922Z,98273.88
2023-01-04T01:14:54.802Z,98288.75
2023-01-04T01:17:27.585Z,98283.31
2023-01-04T01:19:56.821Z,98287.13
2023-01-04T01:22:27.559Z,98292.69
2023-01-04T01:24:56.565Z,98290.50
2023-01-04T01:27:25.346Z,98293.56
2023-01-04T01:29:54.459Z,98292.78
2023-01-04T01:32:23.384Z,98296.28
2023-01-04T01:34:52.221Z,98289.09
2023-01-04T01:37:21.401Z,98293.19
2023-01-04T01:39:52.722Z,98295.66
2023-01-04T01:42:23.502Z,98299.31
2023-01-04T01:45:11.105Z,98303.78
2023-01-04T01:47:43.207Z,98307.66
2023-01-04T01:50:24.389Z,98308.06
2023-01-04T01:52:53.786Z,98310.28
2023-01-04T01:55:28.782Z,98311.94
2023-01-04T01:57:58.961Z,98310.72
2023-01-04T02:00:28.219Z,98295.22
2023-01-04T02:03:09.663Z,98292.19
2023-01-04T02:05:39.201Z,98292.75
2023-01-04T02:08:08.754Z,98287.06
2023-01-04T02:10:39.325Z,98276.03
2023-01-04T02:13:10.826Z,98268.44
2023-01-04T02:16:06.170Z,98273.50
2023-01-04T02:18:38.554Z,98265.72
2023-01-04T02:21:13.855Z,98263.22
2023-01-04T02:24:06.708Z,98271.34
2023-01-04T02:27:05.494Z,98273.03
2023-01-04T02:30:17.524Z,98263.25
2023-01-04T02:33:09.108Z,98265.72
2023-01-04T02:35:43.755Z,98265.38
2023-01-04T02:38:16.727Z,98267.53
2023-01-04T02:40:49.122Z,98266.28
2023-01-04T02:43:41.458Z,98263.44
2023-01-04T02:46:16.757Z,98268.56
2023-01-04T02:49:07.513Z,98269.75
2023-01-04T02:51:37.942Z,98263.63
2023-01-04T02:54:09.372Z,98266.63
2023-01-04T02:57:02.692Z,98261.75
2023-01-04T03:00:02.233Z,98247.47
2023-01-04T03:03:00.101Z,98243.78
2023-01-04T03:05:53.453Z,98235.63
2023-01-04T03:08:30.586Z,98232.78
2023-01-04T03:11:03.216Z,98232.34
2023-01-04T03:13:34.723Z,98225.78
2023-01-04T03:16:08.933Z,98234.06
2023-01-04T03:18:40.546Z,98235.06
2023-01-04T03:21:15.212Z,98243.59
2023-01-04T03:24:01.928Z,98239.09
2023-01-04T03:26:57.621Z,98244.38
2023-01-04T03:29:51.130Z,98240.72
2023-01-04T03:32:42.391Z,98241.09
2023-01-04T03:35:34.363Z,98246.97
2023-01-04T03:38:26.043Z,98245.78
2023-01-04T03:41:15.959Z,98237.47
2023-01-04T03:44:05.757Z,98226.88
2023-01-04T03:46:55.179Z,98222.81
2023-01-04T03:49:27.704Z,98220.72
2023-01-04T03:52:01.220Z,98223.69
2023-01-04T03:54:37.884Z,98230.41
2023-01-04T03:57:07.486Z,98225.09
2023-01-04T03:59:38.724Z,98215.22
2023-01-04T04:02:10.727Z,98206.19
2023-01-04T04:04:57.103Z,98204.97
2023-01-04T04:07:43.297Z,98205.13
2023-01-04T04:10:14.049Z,98201.28
2023-01-04T04:12:43.028Z,98204.53
2023-01-04T04:15:12.227Z,98200.41
2023-01-04T04:17:41.120Z,98203.78
2023-01-04T04:20:11.658Z,98205.66
2023-01-04T04:22:41.362Z,98203.50
2023-01-04T04:25:11.627Z,98189.72
2023-01-04T04:27:42.279Z,98189.91
2023-01-04T04:30:16.843Z,98193.16
2023-01-04T04:32:46.273Z,98192.06
2023-01-04T04:35:15.240Z,98181.00
2023-01-04T04:37:44.449Z,98174.09
2023-01-04T04:40:29.467Z,98183.38
2023-01-04T04:43:00.010Z,98173.31
2023-01-04T04:45:29.053Z,98172.47
2023-01-04T04:47:58.030Z,98169.41
2023-01-04T04:50:26.973Z,98167.28
2023-01-04T04:52:56.528Z,98164.19
2023-01-04T04:55:25.727Z,98167.09
2023-01-04T04:58:00.210Z,98162.59
2023-01-04T05:00:29.479Z,98157.03
2023-01-04T05:03:00.269Z,98151.16
2023-01-04T05:05:29.794Z,98156.94
2023-01-04T05:07:58.792Z,98157.69
2023-01-04T05:10:27.986Z,98152.41
2023-01-04T05:13:01.852Z,98155.91
2023-01-04T05:15:35.418Z,98152.91
2023-01-04T05:18:05.312Z,98163.47
2023-01-04T05:20:34.900Z,98166.88
2023-01-04T05:23:06.637Z,98159.50
2023-01-04T05:25:35.569Z,98162.50
2023-01-04T05:28:04.757Z,98156.84
2023-01-04T05:30:53.773Z,98159.84
2023-01-04T05:33:24.737Z,98162.34
2023-01-04T05:35:54.956Z,98165.91
2023-01-04T05:38:24.038Z,98170.66
2023-01-04T05:40:53.498Z,98166.28
2023-01-04T05:43:23.837Z,98172.03
2023-01-04T05:45:55.889Z,98172.50
2023-01-04T05:48:26.729Z,98184.56
2023-01-04T05:50:56.043Z,98184.16
2023-01-04T05:53:25.233Z,98182.53
2023-01-04T05:55:54.305Z,98186.41
2023-01-04T05:58:24.025Z,98195.41
2023-01-04T06:00:55.768Z,98197.13
2023-01-04T06:03:24.959Z,98209.16
2023-01-04T06:05:54.810Z,98203.06
2023-01-04T06:08:23.572Z,98198.75
2023-01-04T06:11:22.615Z,98179.34
2023-01-04T06:13:54.771Z,98174.22
2023-01-04T06:16:25.352Z,98168.53
2023-01-04T06:18:54.390Z,98171.34
2023-01-04T06:21:25.476Z,98176.63
2023-01-04T06:23:54.741Z,98170.44
2023-01-04T06:26:23.612Z,98175.25
2023-01-04T06:28:52.763Z,98165.00
2023-01-04T06:31:21.955Z,98162.06
2023-01-04T06:33:52.037Z,98162.66
2023-01-04T06:36:21.474Z,98174.63
2023-01-04T06:38:50.780Z,98177.63
2023-01-04T06:41:19.955Z,98165.94
2023-01-04T06:43:48.738Z,98164.63
2023-01-04T06:46:17.890Z,98159.34
2023-01-04T06:48:47.137Z,98158.31
2023-01-04T06:51:17.712Z,98150.34
2023-01-04T06:53:47.989Z,98141.78
2023-01-04T06:56:24.544Z,98152.69
2023-01-04T06:58:53.758Z,98145.59
2023-01-04T07:01:22.806Z,98144.44
2023-01-04T07:03:52.364Z,98144.16
2023-01-04T07:06:22.834Z,98137.16
2023-01-04T07:08:51.796Z,98136.94
2023-01-04T07:11:20.671Z,98143.13
2023-01-04T07:13:49.671Z,98137.22
2023-01-04T07:16:18.680Z,98130.41
2023-01-04T07:18:47.728Z,98131.03
2023-01-04T07:21:17.060Z,98121.44
2023-01-04T07:23:50.728Z,98127.75
2023-01-04T07:26:19.438Z,98121.22
2023-01-04T07:29:05.842Z,98127.03
2023-01-04T07:31:37.808Z,98129.47
2023-01-04T07:34:06.908Z,98129.41
2023-01-04T07:36:35.919Z,98133.81
2023-01-04T07:39:06.752Z,98132.19
2023-01-04T07:41:35.626Z,98133.03
2023-01-04T07:44:05.151Z,98134.09
2023-01-04T07:46:34.752Z,98119.88
2023-01-04T07:49:03.750Z,98117.16
2023-01-04T07:51:33.253Z,98117.00
2023-01-04T07:54:02.369Z,98111.09
2023-01-04T07:56:32.959Z,98106.59
2023-01-04T07:59:01.903Z,98093.84
2023-01-04T08:01:30.761Z,98102.84
2023-01-04T08:03:59.898Z,98099.00
2023-01-04T08:06:28.961Z,98099.66
2023-01-04T08:08:57.709Z,98095.91
2023-01-04T08:11:26.809Z,98088.59
2023-01-04T08:13:57.251Z,98097.25
2023-01-04T08:16:28.998Z,98095.75
2023-01-04T08:18:58.647Z,98093.97
2023-01-04T08:21:29.096Z,98085.28
2023-01-04T08:23:58.679Z,98083.81
2023-01-04T08:26:30.337Z,98097.25
2023-01-04T08:29:01.386Z,98095.75
2023-01-04T08:31:31.958Z,98094.28
2023-01-04T08:34:05.432Z,98085.28
2023-01-04T08:36:35.988Z,98094.28
2023-01-04T08:39:06.877Z,98093.69
2023-01-04T08:42:04.847Z,98092.22
2023-01-04T08:44:41.209Z,98086.63
2023-01-04T08:47:13.182Z,98090.78
2023-01-04T08:49:41.974Z,98088.81
2023-01-04T08:52:16.393Z,98084.81
2023-01-04T08:54:45.577Z,98082.66
2023-01-04T08:57:14.792Z,98085.34
2023-01-04T08:59:45.933Z,98069.91
2023-01-04T09:02:25.361Z,98067.97
2023-01-04T09:04:59.705Z,98082.13
2023-01-04T09:07:30.537Z,98064.28
2023-01-04T09:10:00.972Z,98059.47
2023-01-04T09:12:58.489Z,98060.50
2023-01-04T09:15:28.851Z,98054.88
2023-01-04T09:18:30.450Z,98052.91
2023-01-04T09:20:46.937Z,98056.03
2023-01-04T09:23:15.510Z,98049.66
2023-01-04T09:25:50.219Z,98043.66
2023-01-04T09:28:18.826Z,98042.03
2023-01-04T09:30:49.747Z,98044.72
2023-01-04T09:33:18.482Z,98035.31
2023-01-04T09:35:47.233Z,98042.69
2023-01-04T09:38:16.057Z,98039.69
2023-01-04T09:40:57.824Z,98038.03
2023-01-04T09:43:27.317Z,98047.19
2023-01-04T09:46:01.571Z,98036.63
2023-01-04T09:48:30.826Z,98033.50
2023-01-04T09:51:01.506Z,98028.25
2023-01-04T09:53:33.560Z,98031.81
2023-01-04T09:56:07.289Z,98027.84
2023-01-04T09:58:37.489Z,98020.03
2023-01-04T10:01:09.298Z,98029.84
2023-01-04T10:03:40.250Z,98019.94
2023-01-04T10:06:12.116Z,98015.53
2023-01-04T10:08:42.540Z,98007.94
2023-01-04T10:11:31.955Z,98001.94
2023-01-04T10:14:16.031Z,98000.75
2023-01-04T10:22:47.559Z,97974.47
2023-01-04T10:25:29.660Z,97965.47
2023-01-04T10:28:08.206Z,97959.47
2023-01-04T10:30:42.163Z,97949.91
2023-01-04T10:33:15.145Z,97947.84
2023-01-04T10:35:45.926Z,97937.31
2023-01-04T10:38:18.805Z,97930.41
2023-01-04T10:40:50.515Z,97930.00
2023-01-04T10:44:09.911Z,97921.03
2023-01-04T10:46:26.007Z,97921.66
2023-01-04T10:48:59.882Z,97912.63
2023-01-04T10:51:32.517Z,97911.13
2023-01-04T10:54:08.884Z,97906.34
2023-01-04T10:56:40.782Z,97901.03
2023-01-04T10:59:15.633Z,97896.75
2023-01-04T11:01:48.580Z,97892.00
2023-01-04T11:04:23.086Z,97886.94
2023-01-04T11:06:55.403Z,97892.88
2023-01-04T11:09:25.861Z,97885.97
2023-01-04T11:11:56.895Z,97889.50
2023-01-04T11:14:28.489Z,97879.38
2023-01-04T11:17:02.907Z,97881.56
2023-01-04T11:19:34.266Z,97878.59
2023-01-04T11:22:08.967Z,97882.66
2023-01-04T11:24:38.865Z,97884.25
2023-01-04T11:27:12.512Z,97885.81
2023-01-04T11:29:43.207Z,97890.66
2023-01-04T11:32:18.737Z,97892.56
2023-01-04T11:34:51.958Z,97888.03
2023-01-04T11:37:33.588Z,97896.63
2023-01-04T11:40:23.606Z,97870.94
2023-01-04T11:42:53.418Z,97873.06
2023-01-04T11:45:25.657Z,97864.00
2023-01-04T11:47:55.581Z,97861.31
2023-01-04T11:50:38.707Z,97851.19
2023-01-04T11:53:29.320Z,97852.56
2023-01-04T11:56:17.632Z,97838.41
2023-01-04T11:58:47.434Z,97824.53
2023-01-04T12:01:26.205Z,97821.38
2023-01-04T12:03:54.796Z,97828.94
2023-01-04T12:06:34.192Z,97827.91
2023-01-04T12:09:02.850Z,97819.91
2023-01-04T12:11:32.638Z,97822.53
2023-01-04T12:14:01.152Z,97824.09
2023-01-04T12:16:48.769Z,97830.81
2023-01-04T12:19:18.342Z,97828.94
2023-01-04T12:21:51.182Z,97815.03
2023-01-04T12:24:21.247Z,97821.56
2023-01-04T12:26:50.496Z,97814.34
2023-01-04T12:29:56.100Z,97808.72
2023-01-04T12:32:44.260Z,97802.59
2023-01-04T12:36:02.064Z,97792.16
2023-01-04T12:39:00.847Z,97791.09
2023-01-04T12:42:09.735Z,97772.09
2023-01-04T12:45:24.041Z,97771.28
2023-01-04T12:48:11.322Z,97770.75
2023-01-04T12:51:42.727Z,97775.59
2023-01-04T12:54:31.747Z,97784.69
2023-01-04T12:57:24.974Z,97782.53
2023-01-04T12:59:58.218Z,97784.13
2023-01-04T13:02:27.671Z,97778.25
2023-01-04T13:05:25.858Z,97787.88
2023-01-04T13:07:47.255Z,97777.19
2023-01-04T13:10:30.376Z,97773.41
2023-01-04T13:13:24.989Z,97772.34
2023-01-04T13:16:05.905Z,97757.88
2023-01-04T13:18:36.913Z,97758.94
2023-01-04T13:21:12.392Z,97755.75
2023-01-04T13:23:41.220Z,97756.03
2023-01-04T13:26:39.289Z,97749.31
2023-01-04T13:29:15.614Z,97745.31
2023-01-04T13:31:47.807Z,97751.47
2023-01-04T13:34:19.819Z,97752.03
2023-01-04T13:36:55.750Z,97759.50
2023-01-04T13:39:24.206Z,97753.63
2023-01-04T13:41:54.809Z,97755.22
2023-01-04T13:45:08.776Z,97746.13
2023-01-04T13:47:19.492Z,97745.63
2023-01-04T13:49:47.848Z,97736.50
2023-01-04T13:52:49.754Z,97734.34
2023-01-04T13:55:16.974Z,97731.16
2023-01-04T13:57:55.533Z,97728.47
2023-01-04T14:00:24.540Z,97718.56
2023-01-04T14:03:08.487Z,97729.56
2023-01-04T14:05:37.239Z,97712.94
2023-01-04T14:08:10.815Z,97714.00
2023-01-04T14:10:39.321Z,97711.06
2023-01-04T14:13:10.172Z,97707.06
2023-01-04T14:15:38.456Z,97714.28
2023-01-04T14:18:06.596Z,97706.50
2023-01-04T14:20:36.527Z,97711.06
2023-01-04T14:23:05.411Z,97708.13
2023-01-04T14:25:45.941Z,97706.00
2023-01-04T14:28:50.349Z,97702.25
2023-01-04T14:31:32.728Z,97698.75
2023-01-04T14:34:09.122Z,97701.69
2023-01-04T14:36:38.507Z,97700.09
2023-01-04T14:39:18.711Z,97704.63
2023-01-04T14:41:54.961Z,97699.03
2023-01-04T14:44:25.662Z,97693.13
2023-01-04T14:46:55.609Z,97692.03
2023-01-04T14:49:26.805Z,97685.91
2023-01-04T14:51:56.255Z,97686.72
2023-01-04T14:54:25.822Z,97685.09
2023-01-04T14:56:55.044Z,97673.31
2023-01-04T14:59:25.270Z,97662.56
2023-01-04T15:01:53.991Z,97664.47
2023-01-04T15:04:22.485Z,97656.69
2023-01-04T15:06:53.336Z,97650.25
2023-01-04T15:09:21.787Z,97648.91
2023-01-04T15:11:50.063Z,97643.28
2023-01-04T15:14:18.491Z,97639.81
2023-01-04T15:16:48.291Z,97651.03
2023-01-04T15:19:41.207Z,97644.59
2023-01-04T15:22:09.328Z,97648.09
2023-01-04T15:24:37.455Z,97650.78
2023-01-04T15:27:05.666Z,97645.41
2023-01-04T15:29:33.711Z,97638.97
2023-01-04T15:32:03.380Z,97642.75
2023-01-04T15:34:31.580Z,97651.84
2023-01-04T15:36:59.697Z,97656.69
2023-01-04T15:39:27.864Z,97658.81
2023-01-04T15:42:13.548Z,97645.97
2023-01-04T15:44:41.588Z,97654.53
2023-01-04T15:47:35.700Z,97649.97
2023-01-04T15:50:04.367Z,97649.97
2023-01-04T15:52:32.542Z,97656.13
2023-01-04T15:55:00.656Z,97667.13
2023-01-04T15:57:29.196Z,97662.81
2023-01-04T15:59:57.290Z,97660.97
2023-01-04T16:02:25.656Z,97667.94
2023-01-04T16:04:56.197Z,97662.03
2023-01-04T16:07:24.732Z,97674.34
2023-01-04T16:09:52.853Z,97675.16
2023-01-04T16:12:38.602Z,97676.50
2023-01-04T16:15:08.154Z,97679.47
2023-01-04T16:17:36.413Z,97672.47
2023-01-04T16:20:07.020Z,97678.13
2023-01-04T16:22:35.385Z,97678.13
2023-01-04T16:25:11.990Z,97679.72
2023-01-04T16:27:41.103Z,97672.22
2023-01-04T16:30:13.510Z,97671.41
2023-01-04T16:32:43.347Z,97678.13
2023-01-04T16:35:13.535Z,97673.03
2023-01-04T16:37:43.147Z,97670.59
2023-01-04T16:40:12.611Z,97662.56
2023-01-04T16:42:40.822Z,97662.84
2023-01-04T16:45:10.807Z,97665.53
2023-01-04T16:47:40.319Z,97662.59
2023-01-04T16:50:09.784Z,97663.09
2023-01-04T16:52:40.025Z,97646.75
2023-01-04T16:55:09.194Z,97648.63
2023-01-04T16:57:37.208Z,97654.25
2023-01-04T17:00:06.124Z,97657.75
2023-01-04T17:02:34.379Z,97661.50
2023-01-04T17:05:02.634Z,97665.53
2023-01-04T17:07:33.206Z,97662.84
2023-01-04T17:10:02.885Z,97654.78
2023-01-04T17:12:48.548Z,97642.19
2023-01-04T17:18:06.473Z,97632.53
2023-01-04T17:20:34.581Z,97636.03
2023-01-04T17:23:02.939Z,97625.56
2023-01-04T17:25:32.802Z,97620.22
2023-01-04T17:28:01.000Z,97621.28
2023-01-04T17:30:29.148Z,97625.59
2023-01-04T17:32:57.206Z,97615.16
2023-01-04T17:35:25.338Z,97611.13
2023-01-04T17:37:53.476Z,97602.53
2023-01-04T17:40:23.381Z,97601.47
2023-01-04T17:42:53.496Z,97605.50
2023-01-04T17:45:21.844Z,97588.88
2023-01-04T17:47:49.949Z,97592.09
2023-01-04T17:50:19.515Z,97602.56
2023-01-04T17:52:48.188Z,97600.41
2023-01-04T17:55:16.415Z,97597.19
2023-01-04T17:57:44.857Z,97592.88
2023-01-04T18:00:16.053Z,97598.28
2023-01-04T18:02:44.689Z,97592.91
2023-01-04T18:05:12.838Z,97597.72
2023-01-04T18:07:40.993Z,97596.91
2023-01-04T18:10:20.711Z,97605.75
2023-01-04T18:12:49.518Z,97606.84
2023-01-04T18:15:19.233Z,97604.41
2023-01-04T18:17:47.366Z,97598.78
2023-01-04T18:20:23.982Z,97611.13
2023-01-04T18:22:52.941Z,97600.13
2023-01-04T18:25:21.163Z,97588.06
2023-01-04T18:27:49.380Z,97581.38
2023-01-04T18:30:19.432Z,97569.06
2023-01-04T18:32:47.639Z,97572.53
2023-01-04T18:35:15.908Z,97578.97
2023-01-04T18:37:46.243Z,97555.66
2023-01-04T18:40:14.534Z,97543.34
2023-01-04T18:42:47.144Z,97551.09
2023-01-04T18:45:15.373Z,97532.91
2023-01-04T18:47:47.547Z,97536.09
2023-01-04T18:50:16.175Z,97528.59
2023-01-04T18:52:45.253Z,97521.88
2023-01-04T18:55:13.607Z,97524.03
2023-01-04T18:57:42.565Z,97536.63
2023-01-04T19:00:11.849Z,97535.00
2023-01-04T19:02:40.357Z,97539.59
2023-01-04T19:05:11.290Z,97533.66
2023-01-04T19:07:40.354Z,97529.13
2023-01-04T19:10:10.106Z,97529.13
2023-01-04T19:12:38.993Z,97515.16
2023-01-04T19:15:09.454Z,97517.31
2023-01-04T19:17:37.671Z,97503.09
2023-01-04T19:20:07.080Z,97501.22
2023-01-04T19:22:36.685Z,97503.34
2023-01-04T19:25:05.443Z,97508.75
2023-01-04T19:27:33.577Z,97505.22
2023-01-04T19:30:02.287Z,97509.78
2023-01-04T19:32:33.591Z,97495.31
2023-01-04T19:35:01.878Z,97499.88
2023-01-04T19:37:30.352Z,97499.59
2023-01-04T19:40:00.254Z,97509.75
2023-01-04T19:42:28.402Z,97513.47
2023-01-04T19:44:56.467Z,97496.88
2023-01-04T19:47:24.623Z,97501.66
2023-01-04T19:49:52.692Z,97492.78
2023-01-04T19:52:20.786Z,97493.06
2023-01-04T19:54:48.959Z,97485.50
2023-01-04T19:57:18.407Z,97494.09
2023-01-04T19:59:46.679Z,97489.84
2023-01-04T20:02:15.091Z,97484.44
2023-01-04T20:04:43.609Z,97479.84
2023-01-04T20:07:11.903Z,97483.00
2023-01-04T20:09:40.027Z,97486.19
2023-01-04T20:12:08.376Z,97492.44
2023-01-04T20:14:39.178Z,97485.44
2023-01-04T20:17:07.351Z,97496.19
2023-01-04T20:19:35.560Z,97495.66
2023-01-04T20:22:03.706Z,97491.34
2023-01-04T20:24:31.969Z,97489.72
2023-01-04T20:27:00.164Z,97487.81
2023-01-04T20:29:28.352Z,97488.53
2023-01-04T20:31:57.800Z,97479.19
2023-01-04T20:34:25.977Z,97490.94
2023-01-04T20:36:54.221Z,97485.03
2023-01-04T20:39:22.714Z,97483.66
2023-01-04T20:42:08.547Z,97487.91
2023-01-04T20:44:37.981Z,97483.41
2023-01-04T20:47:07.500Z,97485.78
2023-01-04T20:49:35.624Z,97489.03
2023-01-04T20:52:03.784Z,97484.16
2023-01-04T20:54:31.840Z,97489.53
2023-01-04T20:56:59.942Z,97478.25
2023-01-04T20:59:27.950Z,97484.19
2023-01-04T21:01:56.498Z,97478.78
2023-01-04T21:04:27.685Z,97472.88
2023-01-04T21:06:55.822Z,97482.56
2023-01-04T21:09:24.138Z,97469.66
2023-01-04T21:11:52.301Z,97471.81
2023-01-04T21:14:20.423Z,97473.13
2023-01-04T21:16:48.524Z,97468.59
2023-01-04T21:19:16.593Z,97466.72
2023-01-04T21:21:46.840Z,97455.16
2023-01-04T21:24:15.119Z,97455.16
2023-01-04T21:26:43.190Z,97455.72
2023-01-04T21:29:11.360Z,97460.03
2023-01-04T21:31:39.716Z,97466.22
2023-01-04T21:34:13.017Z,97454.72
2023-01-04T21:36:43.377Z,97460.09
2023-01-04T21:39:12.950Z,97451.53
2023-01-04T21:41:47.661Z,97453.66
2023-01-04T21:44:16.219Z,97459.03
2023-01-04T21:46:44.311Z,97442.41
2023-01-04T21:49:12.639Z,97453.38
2023-01-04T21:51:40.752Z,97456.34
2023-01-04T21:54:09.103Z,97445.63
2023-01-04T21:56:38.564Z,97454.75
2023-01-04T21:59:06.669Z,97462.53
2023-01-04T22:01:35.536Z,97458.56
2023-01-04T22:04:04.548Z,97452.09
2023-01-04T22:06:37.410Z,97447.00
2023-01-04T22:09:05.763Z,97449.94
2023-01-04T22:11:34.045Z,97455.31
2023-01-04T22:14:03.709Z,97451.84
2023-01-04T22:16:31.767Z,97454.28
2023-01-04T22:18:59.832Z,97448.91
2023-01-04T22:21:28.015Z,97447.06
2023-01-04T22:23:56.351Z,97460.47
2023-01-04T22:26:24.440Z,97468.25
2023-01-04T22:28:52.565Z,97461.03
2023-01-04T22:31:22.056Z,97443.56
2023-01-04T22:33:50.159Z,97448.41
2023-01-04T22:36:22.847Z,97449.19
2023-01-04T22:38:52.211Z,97454.03
2023-01-04T22:41:24.858Z,97461.25
2023-01-04T22:43:56.798Z,97453.19
2023-01-04T22:46:27.916Z,97447.81
2023-01-04T22:48:56.197Z,97449.97
2023-01-04T22:51:27.409Z,97440.84
2023-01-04T22:53:56.069Z,97437.59
2023-01-04T22:56:24.597Z,97447.53
2023-01-04T22:58:55.181Z,97456.94
2023-01-04T23:01:24.488Z,97450.78
2023-01-04T23:03:54.730Z,97441.91
2023-01-04T23:06:23.771Z,97438.69
2023-01-04T23:08:56.693Z,97425.81
2023-01-04T23:11:25.574Z,97434.94
2023-01-04T23:13:53.617Z,97440.09
2023-01-04T23:16:27.853Z,97441.44
2023-01-04T23:19:01.339Z,97435.81
2023-01-04T23:21:29.825Z,97418.94
2023-01-04T23:23:58.027Z,97413.84
2023-01-04T23:26:27.360Z,97415.16
2023-01-04T23:28:55.747Z,97397.97
2023-01-04T23:31:25.865Z,97403.34
2023-01-04T23:33:57.357Z,97411.38
2023-01-04T23:36:29.117Z,97402.25
2023-01-04T23:38:59.316Z,97406.00
2023-01-04T23:41:41.954Z,97404.94
2023-01-04T23:44:12.087Z,97398.50
2023-01-04T23:46:40.178Z,97405.50
2023-01-04T23:49:08.236Z,97400.16
2023-01-04T23:51:37.737Z,97408.47
2023-01-04T23:54:06.593Z,97416.25
2023-01-04T23:56:34.719Z,97414.91
2023-01-04T23:59:02.762Z,97413.78
